createdAt,value
2018-07-25T00:01:38.799Z,21.40
2018-07-25T00:04:06.967Z,21.40
2018-07-25T00:06:35.059Z,21.30
2018-07-25T00:09:06.109Z,21.30
2018-07-25T00:11:34.271Z,21.20
2018-07-25T00:14:02.397Z,21.20
2018-07-25T00:16:30.518Z,21.20
2018-07-25T00:18:58.661Z,21.10
2018-07-25T00:21:27.075Z,21.10
2018-07-25T00:23:55.181Z,21.10
2018-07-25T00:26:23.297Z,21.10
2018-07-25T00:28:51.728Z,21.10
2018-07-25T00:31:19.804Z,21.00
2018-07-25T00:33:47.933Z,21.00
2018-07-25T00:36:16.039Z,21.00
2018-07-25T00:38:44.162Z,21.00
2018-07-25T00:41:12.266Z,21.00
2018-07-25T00:43:40.374Z,20.90
2018-07-25T00:46:08.524Z,20.80
2018-07-25T00:48:36.666Z,20.80
2018-07-25T00:51:04.755Z,20.70
2018-07-25T00:53:32.899Z,20.70
2018-07-25T00:56:01.009Z,20.70
2018-07-25T00:58:29.158Z,20.60
2018-07-25T01:00:57.272Z,20.60
2018-07-25T01:03:25.403Z,20.60
2018-07-25T01:05:53.485Z,20.60
2018-07-25T01:08:21.609Z,20.60
2018-07-25T01:10:49.735Z,20.50
2018-07-25T01:13:17.877Z,20.50
2018-07-25T01:15:45.986Z,20.50
2018-07-25T01:18:14.073Z,20.40
2018-07-25T01:20:42.793Z,20.40
2018-07-25T01:23:10.892Z,20.30
2018-07-25T01:25:38.978Z,20.30
2018-07-25T01:28:07.077Z,20.20
2018-07-25T01:30:35.193Z,20.20
2018-07-25T01:33:03.322Z,20.20
2018-07-25T01:35:31.437Z,20.20
2018-07-25T01:37:59.545Z,20.20
2018-07-25T01:40:27.686Z,20.20
2018-07-25T01:42:55.790Z,20.10
2018-07-25T01:45:23.879Z,20.00
2018-07-25T01:47:51.970Z,20.00
2018-07-25T01:50:20.087Z,20.00
2018-07-25T01:52:48.199Z,20.00
2018-07-25T01:55:16.313Z,19.90
2018-07-25T01:57:44.418Z,19.90
2018-07-25T02:00:12.508Z,19.90
2018-07-25T02:02:40.661Z,19.90
2018-07-25T02:05:08.794Z,19.80
2018-07-25T02:07:36.913Z,19.80
2018-07-25T02:10:05.869Z,19.80
2018-07-25T02:12:34.203Z,19.70
2018-07-25T02:15:02.320Z,19.70
2018-07-25T02:17:30.401Z,19.70
2018-07-25T02:19:58.594Z,19.70
2018-07-25T02:22:26.704Z,19.70
2018-07-25T02:24:54.824Z,19.70
2018-07-25T02:27:22.918Z,19.60
2018-07-25T02:29:51.101Z,19.60
2018-07-25T02:32:19.210Z,19.60
2018-07-25T02:34:47.311Z,19.50
2018-07-25T02:37:15.454Z,19.60
2018-07-25T02:39:43.782Z,19.50
2018-07-25T02:42:11.914Z,19.50
2018-07-25T02:44:40.171Z,19.50
2018-07-25T02:47:08.330Z,19.50
2018-07-25T02:49:36.494Z,19.50
2018-07-25T02:52:04.575Z,19.40
2018-07-25T02:54:32.722Z,19.40
2018-07-25T02:59:28.749Z,19.20
2018-07-25T03:01:56.868Z,19.30
2018-07-25T03:04:24.962Z,19.30
2018-07-25T03:06:53.073Z,19.20
2018-07-25T03:09:21.187Z,19.20
2018-07-25T03:11:49.266Z,19.20
2018-07-25T03:14:17.343Z,19.20
2018-07-25T03:16:45.513Z,19.20
2018-07-25T03:19:13.563Z,19.20
2018-07-25T03:21:41.708Z,19.10
2018-07-25T03:24:09.841Z,19.10
2018-07-25T03:26:37.952Z,19.10
2018-07-25T03:29:06.080Z,19.10
2018-07-25T03:31:34.241Z,19.10
2018-07-25T03:34:02.311Z,19.10
2018-07-25T03:36:30.452Z,19.10
2018-07-25T03:39:05.149Z,19.10
2018-07-25T03:41:33.297Z,19.10
2018-07-25T03:44:01.428Z,19.10
2018-07-25T03:46:29.543Z,19.20
2018-07-25T03:48:57.641Z,19.20
2018-07-25T03:51:25.894Z,19.20
2018-07-25T03:53:54.077Z,19.30
2018-07-25T03:56:22.205Z,19.30
2018-07-25T03:58:50.322Z,19.30
2018-07-25T04:01:18.446Z,19.30
2018-07-25T04:03:46.610Z,19.40
2018-07-25T04:06:14.718Z,19.40
2018-07-25T04:08:42.838Z,19.40
2018-07-25T04:11:10.995Z,19.40
2018-07-25T04:13:39.101Z,19.50
2018-07-25T04:16:07.277Z,19.50
2018-07-25T04:18:35.434Z,19.50
2018-07-25T04:21:03.551Z,19.50
2018-07-25T04:23:31.658Z,19.50
2018-07-25T04:26:00.386Z,19.50
2018-07-25T04:28:28.481Z,19.50
2018-07-25T04:30:56.633Z,19.60
2018-07-25T04:33:24.766Z,19.50
2018-07-25T04:35:52.866Z,19.60
2018-07-25T04:38:20.977Z,19.60
2018-07-25T04:40:49.122Z,19.60
2018-07-25T04:43:17.225Z,19.60
2018-07-25T04:45:45.323Z,19.60
2018-07-25T04:48:13.458Z,19.70
2018-07-25T04:50:41.569Z,19.70
2018-07-25T04:53:09.670Z,19.70
2018-07-25T04:55:37.805Z,19.70
2018-07-25T04:58:05.986Z,19.80
2018-07-25T05:00:34.090Z,19.80
2018-07-25T05:03:02.263Z,19.90
2018-07-25T05:05:30.401Z,19.90
2018-07-25T05:07:58.546Z,19.90
